CGUHB DTTA-DTKA
Flight info
| Callsign | CGUHB |
|---|---|
| Flight time | N/A |
| Altitude | 14000 |
| Route | KEMIR3C KEMIR |
| Aircraft | CL60/M-SBDE1E2E3FGHIJ1J4J5J7M3RWXYZ/LB1V1D1 |
Departure
| Time | 2026-05-04 13:58 |
|---|---|
| Airport | Tunis Carthage International Airport (DTTA) |
Arrival
| Time | N/A |
|---|---|
| Airport | Tabarka-Aïn Draham International Airport (DTKA) |
| Time | Latitude | Longitude | Altitude | Speed | Heading |
|---|---|---|---|---|---|
| 2026-05-04 12:51 | 36.84354 | 10.23400 | 12 ft | 0 kts | 157° |
| 2026-05-04 13:19 | 36.84356 | 10.23399 | 12 ft | 2 kts | 157° |
| 2026-05-04 13:19 | 36.84366 | 10.23394 | 12 ft | 1 kts | 157° |
| 2026-05-04 13:20 | 36.84380 | 10.23386 | 12 ft | 2 kts | 157° |
| 2026-05-04 13:20 | 36.84394 | 10.23379 | 12 ft | 2 kts | 157° |
| 2026-05-04 13:20 | 36.84408 | 10.23374 | 12 ft | 2 kts | 184° |
| 2026-05-04 13:20 | 36.84421 | 10.23381 | 12 ft | 2 kts | 223° |
| 2026-05-04 13:21 | 36.84427 | 10.23391 | 12 ft | 1 kts | 249° |
| 2026-05-04 13:21 | 36.84428 | 10.23393 | 12 ft | 0 kts | 249° |
| 2026-05-04 13:23 | 36.84422 | 10.23386 | 12 ft | 2 kts | 208° |
| 2026-05-04 13:23 | 36.84393 | 10.23392 | 12 ft | 4 kts | 140° |
| 2026-05-04 13:23 | 36.84394 | 10.23415 | 12 ft | 4 kts | 18° |
| 2026-05-04 13:23 | 36.84438 | 10.23405 | 11 ft | 5 kts | 358° |
| 2026-05-04 13:24 | 36.84473 | 10.23412 | 11 ft | 2 kts | 12° |
| 2026-05-04 13:24 | 36.84496 | 10.23400 | 11 ft | 0 kts | 315° |
| 2026-05-04 13:24 | 36.84517 | 10.23382 | 11 ft | 6 kts | 334° |
| 2026-05-04 13:25 | 36.84661 | 10.23316 | 11 ft | 12 kts | 336° |
| 2026-05-04 13:25 | 36.84716 | 10.23233 | 13 ft | 14 kts | 292° |
| 2026-05-04 13:25 | 36.84756 | 10.23115 | 13 ft | 11 kts | 292° |
| 2026-05-04 13:25 | 36.84794 | 10.23000 | 14 ft | 16 kts | 292° |
| 2026-05-04 13:26 | 36.84846 | 10.22840 | 11 ft | 22 kts | 294° |
| 2026-05-04 13:26 | 36.84913 | 10.22645 | 13 ft | 26 kts | 292° |
| 2026-05-04 13:26 | 36.84983 | 10.22430 | 14 ft | 23 kts | 292° |
| 2026-05-04 13:26 | 36.85031 | 10.22282 | 15 ft | 19 kts | 292° |
| 2026-05-04 13:27 | 36.85089 | 10.22115 | 18 ft | 22 kts | 291° |
| 2026-05-04 13:27 | 36.85144 | 10.21944 | 20 ft | 18 kts | 292° |
| 2026-05-04 13:27 | 36.85186 | 10.21816 | 21 ft | 14 kts | 291° |
| 2026-05-04 13:27 | 36.85254 | 10.21706 | 21 ft | 18 kts | 353° |
| 2026-05-04 13:28 | 36.85360 | 10.21752 | 21 ft | 17 kts | 21° |
| 2026-05-04 13:28 | 36.85405 | 10.21830 | 20 ft | 6 kts | 118° |
| 2026-05-04 13:28 | 36.85354 | 10.21997 | 18 ft | 52 kts | 109° |
| 2026-05-04 13:28 | 36.85242 | 10.22316 | 18 ft | 18 kts | 109° |
| 2026-05-04 13:29 | 36.85233 | 10.22352 | 17 ft | 0 kts | 103° |
| 2026-05-04 13:29 | 36.85232 | 10.22356 | 17 ft | 1 kts | 105° |
| 2026-05-04 13:29 | 36.85228 | 10.22372 | 17 ft | 4 kts | 112° |
| 2026-05-04 13:29 | 36.85216 | 10.22399 | 17 ft | 0 kts | 122° |
| 2026-05-04 13:30 | 36.85215 | 10.22401 | 17 ft | 2 kts | 122° |
| 2026-05-04 13:30 | 36.85187 | 10.22441 | 16 ft | 9 kts | 146° |
| 2026-05-04 13:31 | 36.85111 | 10.22434 | 16 ft | 13 kts | 193° |
| 2026-05-04 13:31 | 36.85042 | 10.22412 | 15 ft | 3 kts | 194° |
| 2026-05-04 13:31 | 36.85005 | 10.22378 | 14 ft | 10 kts | 248° |
| 2026-05-04 13:31 | 36.85002 | 10.22331 | 14 ft | 0 kts | 284° |
| 2026-05-04 13:32 | 36.85003 | 10.22327 | 15 ft | 2 kts | 293° |
| 2026-05-04 13:32 | 36.85028 | 10.22279 | 16 ft | 11 kts | 299° |
| 2026-05-04 13:32 | 36.85048 | 10.22212 | 17 ft | 2 kts | 275° |
| 2026-05-04 13:32 | 36.85067 | 10.22151 | 18 ft | 12 kts | 299° |
| 2026-05-04 13:33 | 36.85116 | 10.22026 | 19 ft | 19 kts | 296° |
| 2026-05-04 13:33 | 36.85168 | 10.21876 | 20 ft | 21 kts | 291° |
| 2026-05-04 13:33 | 36.85222 | 10.21730 | 21 ft | 18 kts | 316° |
| 2026-05-04 13:33 | 36.85342 | 10.21741 | 21 ft | 14 kts | 22° |
| 2026-05-04 13:34 | 36.85401 | 10.21804 | 20 ft | 7 kts | 79° |
| 2026-05-04 13:34 | 36.85379 | 10.21912 | 19 ft | 21 kts | 111° |
| 2026-05-04 13:34 | 36.85214 | 10.22408 | 17 ft | 87 kts | 114° |
| 2026-05-04 13:34 | 36.84987 | 10.23074 | 14 ft | 78 kts | 110° |
| 2026-05-04 13:35 | 36.84790 | 10.23664 | 12 ft | 56 kts | 107° |
| 2026-05-04 13:35 | 36.84767 | 10.23757 | 11 ft | 0 kts | 108° |
| 2026-05-04 13:40 | 36.84766 | 10.23761 | 11 ft | 2 kts | 112° |
| 2026-05-04 13:40 | 36.84749 | 10.23810 | 11 ft | 7 kts | 113° |
| 2026-05-04 13:40 | 36.84728 | 10.23872 | 11 ft | 7 kts | 113° |
| 2026-05-04 13:40 | 36.84707 | 10.23935 | 11 ft | 7 kts | 112° |
| 2026-05-04 13:41 | 36.84685 | 10.23996 | 11 ft | 7 kts | 113° |
| 2026-05-04 13:41 | 36.84672 | 10.24037 | 11 ft | 2 kts | 113° |
| 2026-05-04 13:41 | 36.84660 | 10.24060 | 11 ft | 4 kts | 136° |
| 2026-05-04 13:42 | 36.84603 | 10.24065 | 11 ft | 6 kts | 202° |
| 2026-05-04 13:42 | 36.84572 | 10.24049 | 11 ft | 7 kts | 202° |
| 2026-05-04 13:42 | 36.84523 | 10.24024 | 11 ft | 7 kts | 202° |
| 2026-05-04 13:42 | 36.84490 | 10.24007 | 11 ft | 4 kts | 202° |
| 2026-05-04 13:43 | 36.84472 | 10.23991 | 11 ft | 3 kts | 242° |
| 2026-05-04 13:43 | 36.84471 | 10.23968 | 11 ft | 1 kts | 289° |
| 2026-05-04 13:43 | 36.84473 | 10.23962 | 11 ft | 0 kts | 292° |
| 2026-05-04 13:44 | 36.84473 | 10.23961 | 11 ft | 0 kts | 292° |
| 2026-05-04 13:52 | 36.84474 | 10.23961 | 11 ft | 0 kts | 292° |
| 2026-05-04 13:53 | 36.84486 | 10.23925 | 11 ft | 9 kts | 292° |
| 2026-05-04 13:53 | 36.84524 | 10.23812 | 11 ft | 17 kts | 295° |
| 2026-05-04 13:53 | 36.84580 | 10.23654 | 11 ft | 21 kts | 292° |
| 2026-05-04 13:54 | 36.84714 | 10.23243 | 13 ft | 28 kts | 289° |
| 2026-05-04 13:54 | 36.84793 | 10.23005 | 14 ft | 31 kts | 289° |
| 2026-05-04 13:54 | 36.84945 | 10.22538 | 13 ft | 29 kts | 291° |
| 2026-05-04 13:55 | 36.85020 | 10.22311 | 15 ft | 21 kts | 296° |
| 2026-05-04 13:55 | 36.85142 | 10.21960 | 19 ft | 25 kts | 288° |
| 2026-05-04 13:55 | 36.85201 | 10.21781 | 21 ft | 20 kts | 291° |
| 2026-05-04 13:56 | 36.85238 | 10.21711 | 21 ft | 9 kts | 333° |
| 2026-05-04 13:56 | 36.85313 | 10.21728 | 21 ft | 8 kts | 25° |
| 2026-05-04 13:56 | 36.85383 | 10.21898 | 19 ft | 19 kts | 112° |
| 2026-05-04 13:57 | 36.85296 | 10.22152 | 18 ft | 65 kts | 128° |
| 2026-05-04 13:57 | 36.84986 | 10.22912 | 15 ft | 138 kts | 108° |
| 2026-05-04 13:58 | 36.83447 | 10.27173 | 1669 ft | 197 kts | 127° |
| 2026-05-04 13:58 | 36.80897 | 10.27251 | 2627 ft | 211 kts | 225° |
| 2026-05-04 13:58 | 36.80349 | 10.25586 | 3241 ft | 219 kts | 268° |
| 2026-05-04 13:59 | 36.80854 | 10.23814 | 3854 ft | 223 kts | 306° |
| 2026-05-04 13:59 | 36.82063 | 10.22589 | 4470 ft | 225 kts | 335° |
| 2026-05-04 13:59 | 36.85084 | 10.22831 | 5678 ft | 227 kts | 24° |
| 2026-05-04 14:00 | 36.86350 | 10.24027 | 6284 ft | 228 kts | 44° |
| 2026-05-04 14:00 | 36.88637 | 10.26778 | 7499 ft | 231 kts | 44° |
| 2026-05-04 14:00 | 36.89813 | 10.28183 | 7874 ft | 236 kts | 44° |
| 2026-05-04 14:01 | 36.91015 | 10.29618 | 7955 ft | 235 kts | 44° |
| 2026-05-04 14:01 | 36.92189 | 10.31018 | 7953 ft | 234 kts | 44° |
| 2026-05-04 14:01 | 36.94553 | 10.33836 | 7951 ft | 233 kts | 44° |
| 2026-05-04 14:02 | 36.95741 | 10.35252 | 7952 ft | 233 kts | 44° |
| 2026-05-04 14:02 | 36.96916 | 10.36651 | 7979 ft | 233 kts | 44° |
| 2026-05-04 14:02 | 36.98098 | 10.38060 | 7996 ft | 234 kts | 44° |
| 2026-05-04 14:02 | 36.99280 | 10.39469 | 7999 ft | 234 kts | 44° |
| 2026-05-04 14:03 | 37.00462 | 10.40878 | 8001 ft | 234 kts | 44° |
| 2026-05-04 14:03 | 37.01659 | 10.42305 | 8000 ft | 234 kts | 44° |
| 2026-05-04 14:03 | 37.02832 | 10.43703 | 7999 ft | 233 kts | 44° |
| 2026-05-04 14:03 | 37.04006 | 10.45102 | 8002 ft | 230 kts | 44° |
| 2026-05-04 14:04 | 37.06314 | 10.47873 | 7425 ft | 227 kts | 45° |
| 2026-05-04 14:04 | 37.07447 | 10.49259 | 7034 ft | 228 kts | 45° |
| 2026-05-04 14:04 | 37.08567 | 10.50647 | 6658 ft | 224 kts | 45° |
| 2026-05-04 14:05 | 37.10746 | 10.53405 | 5912 ft | 221 kts | 46° |
| 2026-05-04 14:05 | 37.11813 | 10.54785 | 5538 ft | 220 kts | 47° |
| 2026-05-04 14:05 | 37.12876 | 10.56177 | 5155 ft | 219 kts | 47° |
| 2026-05-04 14:06 | 37.13895 | 10.57587 | 4773 ft | 216 kts | 56° |
| 2026-05-04 14:06 | 37.14288 | 10.59333 | 4381 ft | 209 kts | 100° |
| 2026-05-04 14:06 | 37.13605 | 10.60843 | 3988 ft | 201 kts | 146° |
| 2026-05-04 14:06 | 37.12317 | 10.61442 | 3623 ft | 200 kts | 172° |
| 2026-05-04 14:07 | 37.10909 | 10.61432 | 3245 ft | 202 kts | 191° |
| 2026-05-04 14:07 | 37.09590 | 10.60850 | 2868 ft | 202 kts | 209° |
| 2026-05-04 14:07 | 37.08495 | 10.59752 | 2495 ft | 201 kts | 227° |
| 2026-05-04 14:07 | 37.07749 | 10.58280 | 2131 ft | 202 kts | 245° |
| 2026-05-04 14:08 | 37.07306 | 10.56624 | 1909 ft | 201 kts | 252° |
| 2026-05-04 14:08 | 37.06898 | 10.54931 | 1898 ft | 203 kts | 252° |
| 2026-05-04 14:08 | 37.06484 | 10.53230 | 1900 ft | 203 kts | 252° |
| 2026-05-04 14:08 | 37.06067 | 10.51522 | 1899 ft | 203 kts | 251° |
| 2026-05-04 14:09 | 37.05234 | 10.48122 | 1899 ft | 204 kts | 252° |
| 2026-05-04 14:09 | 37.04816 | 10.46418 | 1897 ft | 203 kts | 252° |
| 2026-05-04 14:10 | 37.03214 | 10.43621 | 1904 ft | 195 kts | 223° |
| 2026-05-04 14:10 | 37.02464 | 10.42265 | 1902 ft | 188 kts | 249° |
| 2026-05-04 14:10 | 37.02305 | 10.40667 | 1897 ft | 186 kts | 275° |
| 2026-05-04 14:10 | 37.02689 | 10.39108 | 1901 ft | 187 kts | 296° |
| 2026-05-04 14:11 | 37.03368 | 10.37743 | 1914 ft | 185 kts | 302° |
| 2026-05-04 14:11 | 37.04641 | 10.34891 | 1901 ft | 186 kts | 295° |
| 2026-05-04 14:11 | 37.05168 | 10.33406 | 1900 ft | 186 kts | 290° |
| 2026-05-04 14:12 | 37.05466 | 10.31846 | 1884 ft | 185 kts | 271° |
| 2026-05-04 14:12 | 37.05328 | 10.30241 | 1850 ft | 182 kts | 250° |
| 2026-05-04 14:12 | 37.03888 | 10.28020 | 1833 ft | 164 kts | 203° |
| 2026-05-04 14:13 | 37.02786 | 10.27671 | 1852 ft | 161 kts | 192° |
| 2026-05-04 14:13 | 37.01716 | 10.27331 | 1966 ft | 160 kts | 191° |
| 2026-05-04 14:13 | 37.00598 | 10.27199 | 1904 ft | 162 kts | 183° |
| 2026-05-04 14:13 | 36.99534 | 10.27162 | 1824 ft | 140 kts | 181° |
| 2026-05-04 14:14 | 36.98576 | 10.26979 | 1767 ft | 136 kts | 193° |
| 2026-05-04 14:14 | 36.96824 | 10.26252 | 1657 ft | 131 kts | 200° |
| 2026-05-04 14:14 | 36.95964 | 10.25850 | 1647 ft | 132 kts | 199° |
| 2026-05-04 14:15 | 36.94192 | 10.25269 | 1316 ft | 130 kts | 190° |
| 2026-05-04 14:15 | 36.92400 | 10.24754 | 990 ft | 140 kts | 192° |
| 2026-05-04 14:16 | 36.90510 | 10.24207 | 733 ft | 142 kts | 191° |
| 2026-05-04 14:16 | 36.89548 | 10.23933 | 622 ft | 132 kts | 194° |
| 2026-05-04 14:17 | 36.87752 | 10.23419 | 264 ft | 139 kts | 196° |
| 2026-05-04 14:17 | 36.86806 | 10.23159 | 70 ft | 130 kts | 191° |
| 2026-05-04 14:17 | 36.85519 | 10.22808 | 15 ft | 64 kts | 186° |